createdAt,value
2023-03-07T00:02:12.063Z,4.4
2023-03-07T00:07:37.379Z,4.2
2023-03-07T00:12:37.434Z,4.2
2023-03-07T00:17:56.024Z,4.5
2023-03-07T00:22:55.923Z,4.1
2023-03-07T00:27:55.942Z,4.1
2023-03-07T00:33:37.419Z,4.1
2023-03-07T00:38:55.935Z,4.2
2023-03-07T00:44:37.434Z,4.3
2023-03-07T00:49:55.896Z,4.3
2023-03-07T00:54:55.943Z,4.6
2023-03-07T01:00:37.453Z,4.4
2023-03-07T01:05:55.908Z,4.2
2023-03-07T01:10:55.933Z,4.3
2023-03-07T01:16:37.508Z,4.2
2023-03-07T01:21:37.423Z,4.5
2023-03-07T01:26:55.918Z,4.4
2023-03-07T01:32:37.515Z,4.5
2023-03-07T01:37:55.892Z,4.7
2023-03-07T01:42:55.916Z,4.6
2023-03-07T01:47:55.945Z,4.7
2023-03-07T01:52:55.919Z,4.6
2023-03-07T01:58:37.403Z,4.6
2023-03-07T02:03:55.962Z,4.7
2023-03-07T02:09:37.393Z,4.4
2023-03-07T02:14:55.948Z,4.5
2023-03-07T02:20:37.409Z,4.5
2023-03-07T02:25:55.937Z,4.9
2023-03-07T02:31:37.368Z,4.7
2023-03-07T02:36:37.442Z,4.8
2023-03-07T02:41:55.910Z,4.7
2023-03-07T02:47:37.376Z,4.9
2023-03-07T02:52:37.414Z,4.8
2023-03-07T02:57:37.395Z,5
2023-03-07T03:02:37.402Z,5.1
2023-03-07T03:07:55.913Z,5
2023-03-07T03:12:55.922Z,5
2023-03-07T03:17:55.945Z,4.8
2023-03-07T03:23:37.405Z,4.8
2023-03-07T03:28:37.394Z,4.6
2023-03-07T03:33:55.929Z,4.8
2023-03-07T03:39:37.430Z,4.7
2023-03-07T03:44:55.933Z,5
2023-03-07T03:50:37.396Z,5
2023-03-07T03:55:37.445Z,5
2023-03-07T04:00:55.904Z,4.9
2023-03-07T04:05:55.926Z,4.9
2023-03-07T04:11:37.400Z,4.9
2023-03-07T04:16:37.411Z,5
2023-03-07T04:21:55.901Z,5
2023-03-07T04:26:55.933Z,4.9
2023-03-07T04:31:56.058Z,4.8
2023-03-07T04:37:37.366Z,4.9
2023-03-07T04:42:37.406Z,4.9
2023-03-07T04:47:55.889Z,4.6
2023-03-07T04:52:55.895Z,4.9
2023-03-07T04:57:55.923Z,4.9
2023-03-07T05:02:55.918Z,5
2023-03-07T05:08:37.388Z,5
2023-03-07T05:13:55.933Z,4.8
2023-03-07T05:19:37.453Z,5.1
2023-03-07T05:24:55.909Z,4.8
2023-03-07T05:30:37.410Z,4.9
2023-03-07T05:35:55.943Z,4.8
2023-03-07T05:40:55.902Z,5.1
2023-03-07T05:46:37.523Z,5
2023-03-07T05:51:55.924Z,4.8
2023-03-07T05:57:37.376Z,4.8
2023-03-07T06:02:56.070Z,5
2023-03-07T06:08:37.384Z,4.9
2023-03-07T06:13:37.389Z,5.1
2023-03-07T06:18:55.931Z,4.9
2023-03-07T06:24:37.378Z,5.1
2023-03-07T06:29:55.890Z,5.2
2023-03-07T06:34:55.989Z,5.1
2023-03-07T06:40:37.467Z,4.9
2023-03-07T06:45:56.010Z,4.8
2023-03-07T06:50:55.922Z,4.9
2023-03-07T06:56:37.378Z,5
2023-03-07T07:01:56.144Z,4.7
2023-03-07T07:07:37.417Z,5
2023-03-07T07:12:55.890Z,5.2
2023-03-07T07:17:55.914Z,4.9
2023-03-07T07:23:37.411Z,5.3
2023-03-07T07:28:37.391Z,5.2
2023-03-07T07:33:55.885Z,5.3
2023-03-07T07:38:55.937Z,5.5
2023-03-07T07:44:37.389Z,5.3
2023-03-07T07:49:37.371Z,5.5
2023-03-07T07:54:55.930Z,5.3
2023-03-07T07:59:55.907Z,5.4
2023-03-07T08:04:55.899Z,5.5
2023-03-07T08:10:37.424Z,5.7
2023-03-07T08:15:56.000Z,5.6
2023-03-07T08:21:37.382Z,5.6
2023-03-07T08:26:37.423Z,5.5
2023-03-07T08:31:37.380Z,5.2
2023-03-07T08:36:55.912Z,5.3
2023-03-07T08:41:55.935Z,5.3
2023-03-07T08:47:37.375Z,5.5
2023-03-07T08:52:55.893Z,5.5
2023-03-07T08:57:56.037Z,5.6
2023-03-07T09:02:55.901Z,5.9
2023-03-07T09:08:37.385Z,5.9
2023-03-07T09:13:55.940Z,6.1
2023-03-07T09:19:37.379Z,6.1
2023-03-07T09:24:55.924Z,6.2
2023-03-07T09:30:37.562Z,6.4
2023-03-07T09:35:55.932Z,6.5
2023-03-07T09:41:37.359Z,6.2
2023-03-07T09:46:37.433Z,6.1
2023-03-07T09:51:55.919Z,6
2023-03-07T09:56:55.932Z,6.2
2023-03-07T10:02:37.407Z,6.4
2023-03-07T10:07:55.923Z,6.3
2023-03-07T10:13:37.373Z,6.5
2023-03-07T10:18:55.941Z,6.5
2023-03-07T10:23:55.917Z,6.3
2023-03-07T10:29:37.425Z,6.6
2023-03-07T10:34:55.934Z,6.2
2023-03-07T10:40:37.363Z,6.3
2023-03-07T10:45:37.427Z,6.5
2023-03-07T10:50:55.950Z,6.6
2023-03-07T10:55:55.890Z,6.7
2023-03-07T11:01:37.551Z,6.4
2023-03-07T11:06:55.921Z,6.6
2023-03-07T11:12:37.360Z,6.5
2023-03-07T11:17:37.396Z,6.7
2023-03-07T11:22:55.934Z,6.7
2023-03-07T11:28:37.383Z,7
2023-03-07T11:33:59.566Z,6.9
2023-03-07T11:38:55.934Z,6.6
2023-03-07T11:44:37.340Z,6.9
2023-03-07T11:49:55.893Z,6.8
2023-03-07T11:55:37.505Z,6.6
2023-03-07T12:00:55.895Z,6.5
2023-03-07T12:05:55.954Z,6.6
2023-03-07T12:10:55.952Z,6.6
2023-03-07T12:16:37.421Z,6.6
2023-03-07T12:21:55.885Z,6.6
2023-03-07T12:26:55.928Z,6.3
2023-03-07T12:31:56.061Z,6.5
2023-03-07T12:37:37.460Z,6.6
2023-03-07T12:42:56.001Z,6.8
2023-03-07T12:48:37.380Z,6.9
2023-03-07T12:53:55.880Z,6.7
2023-03-07T12:58:55.930Z,6.6
2023-03-07T13:03:55.934Z,6.8
2023-03-07T13:09:37.333Z,6.8
2023-03-07T13:14:37.380Z,6.7
2023-03-07T13:19:37.376Z,6.9
2023-03-07T13:24:37.400Z,6.8
2023-03-07T13:29:55.891Z,6.8
2023-03-07T13:34:55.885Z,6.8
2023-03-07T13:39:55.887Z,6.8
2023-03-07T13:44:55.891Z,6.9
2023-03-07T13:50:37.385Z,6.8
2023-03-07T13:55:37.380Z,6.8
2023-03-07T14:00:55.857Z,6.9
2023-03-07T14:05:55.897Z,7
2023-03-07T14:10:55.895Z,7.1
2023-03-07T14:16:37.382Z,7.1
2023-03-07T14:21:55.904Z,7.1
2023-03-07T14:26:55.930Z,7.1
2023-03-07T14:32:37.389Z,7.2
2023-03-07T14:37:55.934Z,7.1
2023-03-07T14:43:37.653Z,7.2
2023-03-07T14:48:37.372Z,7.1
2023-03-07T14:53:55.926Z,6.9
2023-03-07T14:59:37.368Z,6.7
2023-03-07T15:04:55.881Z,6.8
2023-03-07T15:09:55.916Z,6.7
2023-03-07T15:15:12.054Z,6.6
2023-03-07T15:20:37.364Z,6.5
2023-03-07T15:25:37.408Z,6.4
2023-03-07T15:30:55.871Z,5.9
2023-03-07T15:35:55.911Z,5.7
2023-03-07T15:40:55.945Z,5.7
2023-03-07T15:46:37.359Z,5.5
2023-03-07T15:51:37.365Z,5.4
2023-03-07T15:56:55.927Z,5.2
2023-03-07T16:02:37.522Z,5.3
2023-03-07T16:07:37.379Z,5.3
2023-03-07T16:12:55.940Z,5.1
2023-03-07T16:18:37.380Z,4.9
2023-03-07T16:23:55.879Z,4.7
2023-03-07T16:28:55.912Z,4.7
2023-03-07T16:34:37.368Z,4.6
2023-03-07T16:39:37.364Z,4.5
2023-03-07T16:44:55.901Z,4.4
2023-03-07T16:50:37.353Z,4.4
2023-03-07T16:55:37.361Z,4.5
2023-03-07T17:00:55.995Z,4.3
2023-03-07T17:06:39.495Z,4.3
2023-03-07T17:14:49.069Z,4.1
2023-03-07T17:19:55.919Z,4.1
2023-03-07T17:25:37.354Z,4
2023-03-07T17:30:37.384Z,3.7
2023-03-07T17:35:55.955Z,4
2023-03-07T17:41:37.375Z,3.8
2023-03-07T17:46:37.412Z,3.7
2023-03-07T17:51:55.922Z,3.7
2023-03-07T17:56:55.909Z,3.6
2023-03-07T18:02:37.443Z,3.8
2023-03-07T18:07:37.373Z,3.9
2023-03-07T18:12:55.871Z,3.7
2023-03-07T18:17:55.889Z,3.6
2023-03-07T18:22:55.912Z,3.7
2023-03-07T18:27:55.893Z,3.7
2023-03-07T18:33:37.385Z,3.6
2023-03-07T18:38:55.868Z,3.7
2023-03-07T18:43:55.881Z,3.6
2023-03-07T18:48:55.869Z,3.6
2023-03-07T18:54:37.376Z,3.4
2023-03-07T18:59:55.869Z,3.5
2023-03-07T19:04:55.868Z,3.5
2023-03-07T19:10:37.426Z,3.5
2023-03-07T19:15:37.356Z,3.4
2023-03-07T19:20:37.361Z,3.6
2023-03-07T19:25:55.888Z,3.6
2023-03-07T19:30:55.877Z,3.5
2023-03-07T19:36:05.900Z,3.7
2023-03-07T19:41:37.391Z,3.6
2023-03-07T19:46:55.843Z,3.7
2023-03-07T19:51:55.876Z,3.7
2023-03-07T19:57:37.388Z,3.6
2023-03-07T20:02:37.375Z,3.6
2023-03-07T20:07:55.886Z,3.5
2023-03-07T20:13:37.391Z,3.5
2023-03-07T20:18:55.950Z,3.4
2023-03-07T20:24:37.399Z,3.4
2023-03-07T20:29:37.388Z,3.4
2023-03-07T20:34:55.875Z,3.3
2023-03-07T20:40:37.347Z,3.4
2023-03-07T20:45:55.975Z,3.4
2023-03-07T20:51:37.365Z,3.3
2023-03-07T20:56:37.373Z,3.4
2023-03-07T21:01:55.956Z,3.3
2023-03-07T21:06:55.877Z,3.3
2023-03-07T21:12:37.373Z,3.2
2023-03-07T21:17:55.998Z,3.3
2023-03-07T21:23:37.455Z,3.4
2023-03-07T21:28:55.932Z,3.4
2023-03-07T21:34:37.375Z,3.2
2023-03-07T21:39:37.367Z,3.2
2023-03-07T21:44:55.868Z,3.3
2023-03-07T21:50:37.389Z,3.1
2023-03-07T21:55:55.868Z,3.2
2023-03-07T22:00:55.897Z,3.2
2023-03-07T22:06:37.364Z,2.9
2023-03-07T22:11:37.334Z,3.1
2023-03-07T22:16:55.914Z,3.1
2023-03-07T22:22:37.350Z,3.1
2023-03-07T22:27:37.366Z,3
2023-03-07T22:32:55.857Z,3.1
2023-03-07T22:38:37.356Z,3.2
2023-03-07T22:43:37.337Z,3
2023-03-07T22:48:55.859Z,2.9
2023-03-07T22:54:37.353Z,2.8
2023-03-07T22:59:37.347Z,2.9
2023-03-07T23:04:55.863Z,3
2023-03-07T23:10:37.376Z,2.8
2023-03-07T23:15:56.041Z,2.9
2023-03-07T23:21:37.319Z,2.9
2023-03-07T23:26:37.337Z,3.1
2023-03-07T23:31:37.329Z,3.1
2023-03-07T23:36:55.859Z,3
2023-03-07T23:41:55.902Z,3
2023-03-07T23:47:37.358Z,3.1
2023-03-07T23:52:55.894Z,2.9
2023-03-07T23:58:37.368Z,3
